createdAt,value
2023-01-17T00:02:08.643Z,6.20
2023-01-17T00:04:59.663Z,6.20
2023-01-17T00:10:53.481Z,6.30
2023-01-17T00:13:20.656Z,6.10
2023-01-17T00:15:47.760Z,6.30
2023-01-17T00:18:14.955Z,6.20
2023-01-17T00:21:06.784Z,6.20
2023-01-17T00:24:02.937Z,6.10
2023-01-17T00:26:33.138Z,6.10
2023-01-17T00:29:02.374Z,6.10
2023-01-17T00:31:29.722Z,6.10
2023-01-17T00:33:59.296Z,6.10
2023-01-17T00:36:26.732Z,6.10
2023-01-17T00:38:56.170Z,6.20
2023-01-17T00:41:23.520Z,6.20
2023-01-17T00:47:28.449Z,6.10
2023-01-17T00:50:17.283Z,6.20
2023-01-17T00:53:07.798Z,6.30
2023-01-17T00:56:04.758Z,6.20
2023-01-17T01:27:56.128Z,6.20
2023-01-17T01:36:25.551Z,6.20
2023-01-17T03:16:36.984Z,5.60
2023-01-17T03:19:06.830Z,5.60
2023-01-17T03:22:01.395Z,5.60
2023-01-17T05:05:18.618Z,5.60
2023-01-17T05:07:58.018Z,5.60
2023-01-17T05:10:28.659Z,5.60
2023-01-17T05:13:00.341Z,5.70
2023-01-17T05:15:28.891Z,5.70
2023-01-17T05:17:59.221Z,5.60
2023-01-17T05:35:04.047Z,5.30
2023-01-17T05:37:32.132Z,5.30
2023-01-17T05:40:01.948Z,5.30
2023-01-17T05:42:35.756Z,5.20
2023-01-17T05:45:06.364Z,5.10
2023-01-17T06:08:55.206Z,5.00
2023-01-17T06:11:28.283Z,4.90
2023-01-17T06:13:55.453Z,5.00
2023-01-17T12:19:01.645Z,4.60
2023-01-17T12:22:05.671Z,4.70
2023-01-17T12:25:26.307Z,4.70
2023-01-17T12:28:32.883Z,4.90
2023-01-17T12:31:15.336Z,5.10
2023-01-17T12:37:18.018Z,5.40
2023-01-17T12:39:54.331Z,5.60
2023-01-17T12:42:26.301Z,5.80
2023-01-17T12:45:16.984Z,5.80
2023-01-17T12:47:48.883Z,5.70
2023-01-17T12:50:25.677Z,5.60
2023-01-17T12:53:16.422Z,5.50
2023-01-17T12:59:02.112Z,5.40
2023-01-17T13:29:22.094Z,5.30
2023-01-17T13:32:24.696Z,5.30
2023-01-17T13:44:08.773Z,5.60
2023-01-17T13:56:17.001Z,5.60
2023-01-17T13:58:57.863Z,5.50
2023-01-17T14:01:25.061Z,5.50
2023-01-17T14:03:52.109Z,5.50
2023-01-17T14:06:41.086Z,5.50
2023-01-17T14:09:07.913Z,5.50
2023-01-17T14:11:37.041Z,5.50
2023-01-17T14:14:36.723Z,5.60
2023-01-17T14:17:20.408Z,5.60
2023-01-17T14:19:49.844Z,5.70
2023-01-17T14:22:20.050Z,5.80
2023-01-17T14:25:02.030Z,5.80
2023-01-17T14:27:32.079Z,5.70
2023-01-17T14:30:01.707Z,5.60
2023-01-17T14:32:33.555Z,5.60
2023-01-17T14:53:11.849Z,5.30
2023-01-17T14:55:48.756Z,5.30
2023-01-17T14:58:21.992Z,5.30
2023-01-17T15:00:55.238Z,5.20
2023-01-17T15:03:22.782Z,5.10
2023-01-17T15:05:53.660Z,5.10
2023-01-17T15:08:24.517Z,5.00
2023-01-17T15:11:03.120Z,5.00
2023-01-17T15:13:43.925Z,5.00
2023-01-17T15:16:21.620Z,4.90
2023-01-17T15:18:49.187Z,4.90
2023-01-17T15:21:19.540Z,4.90
2023-01-17T15:23:58.405Z,4.90
2023-01-17T15:26:29.799Z,4.80
2023-01-17T15:29:06.752Z,4.70
2023-01-17T15:31:50.988Z,4.60
2023-01-17T15:34:27.768Z,4.60
2023-01-17T15:36:57.900Z,4.50
2023-01-17T15:39:30.356Z,4.40
2023-01-17T15:42:19.719Z,4.30
2023-01-17T15:44:51.251Z,4.40
2023-01-17T15:47:40.018Z,4.20
2023-01-17T15:50:30.991Z,4.00
2023-01-17T15:53:06.039Z,4.10
2023-01-17T15:55:38.972Z,4.10
2023-01-17T15:58:27.129Z,4.00
2023-01-17T16:00:54.583Z,4.00
2023-01-17T16:03:27.472Z,3.80
2023-01-17T16:32:38.602Z,3.40
2023-01-17T16:59:39.650Z,3.00
2023-01-17T17:02:24.941Z,3.00
2023-01-17T17:04:56.003Z,2.90
2023-01-17T17:07:32.072Z,2.80
2023-01-17T17:10:01.245Z,2.90
2023-01-17T17:12:30.965Z,2.90
2023-01-17T17:15:01.021Z,2.90
2023-01-17T17:17:43.190Z,2.80
2023-01-17T17:20:25.171Z,2.80
2023-01-17T17:22:58.089Z,2.70
2023-01-17T17:25:28.361Z,2.80
2023-01-17T17:27:57.323Z,2.80
2023-01-17T17:30:26.676Z,2.70
2023-01-17T17:32:58.184Z,2.70
2023-01-17T17:35:27.916Z,2.60
2023-01-17T17:46:50.943Z,2.50
2023-01-17T19:12:48.143Z,1.70
2023-01-17T19:15:22.087Z,1.60
2023-01-17T19:41:31.956Z,1.50
2023-01-17T19:44:20.196Z,1.50
2023-01-17T20:45:28.499Z,1.10
2023-01-17T20:47:59.792Z,1.10
2023-01-17T20:50:31.474Z,1.20
2023-01-17T22:15:36.457Z,1.00
2023-01-17T22:18:03.482Z,1.20
2023-01-17T22:20:30.381Z,1.10
2023-01-17T22:22:57.812Z,1.20
2023-01-17T22:51:44.891Z,1.10
2023-01-17T22:57:19.451Z,1.10
2023-01-17T23:02:52.160Z,1.10
2023-01-17T23:08:30.253Z,1.00
2023-01-17T23:26:13.555Z,0.90
2023-01-17T23:31:35.671Z,0.90
2023-01-17T23:37:00.947Z,0.90
2023-01-17T23:51:14.537Z,0.80
2023-01-17T23:56:49.296Z,0.80
2023-01-17T23:59:20.991Z,0.60
